KMMU/MMU METAR and TAF weather

Enter ICAO airport designator
Station Type Date Time Source
KMMU METAR 2019/04/18 21:50 UTC NOAA

KMMU 182150Z 04006KT 10SM BKN110 17/13 A2990


Station Type Date Time Source
KMMU Decoded METAR 2019/04/18 21:50 UTC NOAA

Morristown Municipal, NJ, United States (KMMU) 40-48N 074-25W
Apr 18, 2019 - 05:50 PM EDT / 2019.04.18 2150 UTC
Wind: from the NE (040 degrees) at 7 MPH (6 KT):0
Visibility: 10 mile(s):0
Sky conditions: mostly cloudy
Temperature: 62 F (17 C)
Dew Point: 55 F (13 C)
Relative Humidity: 77%
Pressure (altimeter): 29.9 in. Hg (1012 hPa)
ob: KMMU 182150Z 04006KT 10SM BKN110 17/13 A2990
cycle: 22

Station Type Date Time Source
KMMU TAF UTC NOAA

Error!

Example: see airport list